Time;durP1;ratioP1;P1;durP2;ratioP2;P2;SDS_P1;SDS_P2;PMS_P1;PMS_P2;Temp;Humidity;BMP_temperature;BMP_pressure;BME280_temperature;BME280_humidity;BME280_pressure;Samples;Min_cycle;Max_cycle;Signal;HPM_P1;HPM_P2
2021/11/10 00:02:11;;;;;;;3.63;2.05;;;10.30;93.00;;;;;;5029728;28;20057;-59
2021/11/10 00:04:38;;;;;;;6.53;2.28;;;10.20;93.10;;;;;;5029337;28;20057;-58
2021/11/10 00:07:05;;;;;;;3.40;2.13;;;10.10;93.00;;;;;;5030392;28;20081;-60
2021/11/10 00:09:32;;;;;;;4.35;2.25;;;10.10;93.10;;;;;;5030331;28;20069;-60
2021/11/10 00:11:59;;;;;;;7.05;2.47;;;10.00;93.10;;;;;;5030162;28;20103;-61
2021/11/10 00:14:26;;;;;;;3.92;2.28;;;10.00;93.30;;;;;;5030595;28;20488;-59
2021/11/10 00:16:55;;;;;;;3.65;2.60;;;10.10;93.50;;;;;;5030682;28;20081;-59
2021/11/10 00:19:22;;;;;;;3.47;1.95;;;10.10;93.60;;;;;;5030227;28;20046;-60
2021/11/10 00:21:50;;;;;;;5.78;2.88;;;10.20;93.60;;;;;;5029584;28;20080;-60
2021/11/10 00:24:17;;;;;;;7.88;2.80;;;10.30;94.00;;;;;;5030137;28;20045;-60
2021/11/10 00:26:44;;;;;;;10.68;2.30;;;10.20;93.80;;;;;;5031432;28;20038;-59
2021/11/10 00:29:11;;;;;;;4.22;2.65;;;10.20;93.60;;;;;;5023646;28;20041;-59
2021/11/10 00:31:38;;;;;;;3.78;2.85;;;10.30;93.70;;;;;;5035279;28;20128;-60
2021/11/10 00:34:04;;;;;;;3.42;2.17;;;10.30;93.70;;;;;;5035869;28;20408;-58
2021/11/10 00:36:31;;;;;;;6.15;3.25;;;10.40;93.70;;;;;;5029995;28;20049;-59
2021/11/10 00:38:58;;;;;;;8.32;4.60;;;10.40;93.70;;;;;;5030214;28;20064;-60
2021/11/10 00:41:25;;;;;;;6.28;3.08;;;10.40;93.70;;;;;;5035912;28;20379;-59
2021/11/10 00:43:51;;;;;;;6.85;3.22;;;10.50;93.80;;;;;;5039397;28;20073;-59
2021/11/10 00:46:18;;;;;;;6.70;4.00;;;10.50;93.70;;;;;;5035179;28;20085;-60
2021/11/10 00:48:45;;;;;;;5.15;3.20;;;10.60;93.70;;;;;;5037874;28;20463;-59
2021/11/10 00:51:12;;;;;;;6.93;3.60;;;10.60;93.70;;;;;;5032735;28;20041;-58
2021/11/10 00:53:39;;;;;;;5.90;3.13;;;10.70;93.70;;;;;;5040786;28;20119;-59
2021/11/10 00:56:06;;;;;;;6.57;3.13;;;10.70;93.70;;;;;;5037704;28;20041;-58
2021/11/10 00:58:33;;;;;;;6.68;3.20;;;10.70;93.70;;;;;;5035231;28;20080;-59
2021/11/10 01:01:00;;;;;;;6.50;3.38;;;10.70;93.70;;;;;;5032407;28;20092;-58
2021/11/10 01:03:27;;;;;;;6.07;3.25;;;10.70;93.70;;;;;;5035010;28;20103;-59
2021/11/10 01:05:57;;;;;;;9.40;3.22;;;10.70;93.70;;;;;;5033872;28;20046;-59
2021/11/10 01:08:25;;;;;;;6.32;3.38;;;10.80;93.70;;;;;;5032560;28;20053;-58
2021/11/10 01:10:53;;;;;;;5.00;3.13;;;10.80;93.70;;;;;;5043002;28;20225;-59
2021/11/10 01:13:22;;;;;;;5.63;3.75;;;10.80;93.70;;;;;;5037412;28;20417;-59
2021/11/10 01:15:49;;;;;;;4.88;2.80;;;10.80;93.70;;;;;;5029622;28;20047;-59
2021/11/10 01:18:16;;;;;;;5.07;3.55;;;10.70;93.70;;;;;;5029750;28;20132;-58
2021/11/10 01:20:43;;;;;;;8.82;3.83;;;10.70;93.70;;;;;;5037235;28;20053;-60
2021/11/10 01:23:10;;;;;;;10.43;4.55;;;10.70;93.80;;;;;;5028411;28;20099;-60
2021/11/10 01:25:39;;;;;;;6.60;4.82;;;10.80;93.80;;;;;;5037286;28;20495;-60
2021/11/10 01:28:07;;;;;;;10.52;5.00;;;10.90;93.80;;;;;;5031162;28;20088;-59
2021/11/10 01:30:34;;;;;;;8.82;5.07;;;10.90;93.80;;;;;;5029659;28;20226;-58
2021/11/10 01:33:01;;;;;;;9.27;4.30;;;10.90;93.80;;;;;;5035721;28;20092;-60
2021/11/10 01:35:27;;;;;;;8.98;5.00;;;11.00;93.80;;;;;;5034104;28;20503;-60
2021/11/10 01:37:54;;;;;;;7.55;4.25;;;11.00;93.80;;;;;;5035878;28;20099;-60
2021/11/10 01:40:21;;;;;;;6.95;4.03;;;11.10;93.80;;;;;;4679361;28;9999890;-59
2021/11/10 01:42:49;;;;;;;5.63;3.88;;;11.10;93.70;;;;;;5034006;28;20064;-59
2021/11/10 01:45:16;;;;;;;9.57;4.10;;;11.10;93.80;;;;;;5032114;28;20081;-59
2021/11/10 01:47:43;;;;;;;8.85;4.00;;;11.10;93.80;;;;;;5027568;28;20304;-59
2021/11/10 01:50:13;;;;;;;6.00;4.18;;;11.10;93.80;;;;;;5029351;28;20130;-59
2021/11/10 01:52:40;;;;;;;7.20;4.32;;;11.10;93.80;;;;;;5035165;28;20046;-59
2021/11/10 01:55:07;;;;;;;13.88;3.90;;;11.10;93.80;;;;;;5041992;28;20522;-59
2021/11/10 01:57:34;;;;;;;10.25;4.85;;;11.10;93.80;;;;;;5027583;28;20080;-59
2021/11/10 02:00:30;;;;;;;10.13;4.38;;;11.10;93.80;;;;;;5028760;28;20500;-59
2021/11/10 02:02:57;;;;;;;5.03;3.28;;;11.20;94.00;;;;;;5018642;28;20045;-59
2021/11/10 02:05:24;;;;;;;6.75;3.35;;;11.20;93.80;;;;;;5028511;28;20060;-61
2021/11/10 02:07:51;;;;;;;5.55;3.25;;;11.20;93.80;;;;;;5036625;28;20045;-59
2021/11/10 02:10:21;;;;;;;3.97;2.72;;;11.30;93.80;;;;;;5028546;28;20075;-59
2021/11/10 02:12:47;;;;;;;6.38;3.13;;;11.30;93.80;;;;;;5035803;28;20057;-59
2021/11/10 02:15:15;;;;;;;4.38;2.30;;;11.30;93.80;;;;;;5028514;28;20046;-60
2021/11/10 02:17:42;;;;;;;5.13;3.03;;;11.30;93.70;;;;;;5034707;28;20045;-59
2021/11/10 02:20:10;;;;;;;8.63;2.83;;;11.40;93.80;;;;;;5028470;28;20068;-58
2021/11/10 02:22:38;;;;;;;6.18;2.65;;;11.40;93.70;;;;;;5035005;28;20077;-59
2021/11/10 02:25:08;;;;;;;8.60;3.10;;;11.40;93.70;;;;;;5028449;28;20569;-59
2021/11/10 02:27:35;;;;;;;5.63;2.95;;;11.40;93.70;;;;;;5028375;28;20092;-59
2021/11/10 02:30:07;;;;;;;5.00;2.90;;;11.40;93.80;;;;;;5029251;28;20069;-59
2021/11/10 02:32:33;;;;;;;6.25;3.03;;;11.50;93.80;;;;;;5033562;28;20463;-59
2021/11/10 02:35:00;;;;;;;4.75;2.72;;;11.50;93.80;;;;;;5029725;28;20095;-59
2021/11/10 02:37:27;;;;;;;4.63;2.53;;;11.50;93.80;;;;;;5029920;28;20540;-59
2021/11/10 02:39:54;;;;;;;4.05;2.42;;;11.50;93.80;;;;;;5032561;28;20038;-59
2021/11/10 02:42:21;;;;;;;5.18;2.63;;;11.50;93.80;;;;;;5034550;28;20079;-58
2021/11/10 02:44:51;;;;;;;5.30;2.45;;;11.60;93.90;;;;;;5026345;28;20042;-58
2021/11/10 02:47:18;;;;;;;3.90;2.38;;;11.50;93.80;;;;;;5027802;28;20081;-59
2021/11/10 02:49:45;;;;;;;4.55;1.95;;;11.60;93.80;;;;;;5034747;28;20140;-58
2021/11/10 02:52:14;;;;;;;4.65;2.03;;;11.60;93.80;;;;;;5030008;28;20111;-58
2021/11/10 02:54:44;;;;;;;4.13;1.98;;;11.70;93.80;;;;;;5029742;28;20095;-59
2021/11/10 02:57:11;;;;;;;3.03;1.55;;;11.70;93.80;;;;;;5027976;28;20041;-60
2021/11/10 02:59:38;;;;;;;3.67;1.92;;;11.70;93.80;;;;;;5027503;28;20073;-59
2021/11/10 03:02:06;;;;;;;7.80;1.85;;;11.80;93.80;;;;;;5027788;28;20096;-60
2021/11/10 03:04:41;;;;;;;3.67;1.70;;;11.80;93.70;;;;;;5027628;28;20045;-60
2021/11/10 03:07:08;;;;;;;4.47;2.20;;;11.80;93.80;;;;;;5033059;28;20077;-59
2021/11/10 03:09:34;;;;;;;3.55;1.80;;;11.90;93.70;;;;;;5036558;28;20495;-60
2021/11/10 03:12:03;;;;;;;4.72;1.83;;;11.80;93.70;;;;;;5027398;28;20041;-59
2021/11/10 03:14:31;;;;;;;5.47;2.40;;;11.90;93.70;;;;;;5027879;28;20073;-59
2021/11/10 03:16:58;;;;;;;8.57;1.85;;;11.90;94.10;;;;;;5030280;28;20128;-58
2021/11/10 03:19:25;;;;;;;6.60;2.22;;;11.90;93.80;;;;;;5035295;28;20111;-58
2021/11/10 03:21:52;;;;;;;7.70;2.08;;;11.90;93.80;;;;;;5027337;28;20108;-59
2021/11/10 03:24:19;;;;;;;2.97;2.30;;;11.90;93.80;;;;;;5027440;28;20404;-59
2021/11/10 03:26:46;;;;;;;8.25;2.63;;;11.90;93.80;;;;;;5027183;28;20104;-59
2021/11/10 03:29:13;;;;;;;4.43;3.17;;;11.90;94.00;;;;;;5034602;28;20584;-58
2021/11/10 03:31:40;;;;;;;4.80;3.47;;;11.90;94.10;;;;;;5026612;28;20129;-60
2021/11/10 03:34:09;;;;;;;6.60;3.70;;;11.90;94.20;;;;;;5031770;28;20041;-58
2021/11/10 03:36:36;;;;;;;5.68;3.95;;;11.90;94.40;;;;;;5030097;28;20095;-59
2021/11/10 03:39:04;;;;;;;4.78;3.22;;;11.90;94.50;;;;;;5031959;28;20140;-63
2021/11/10 03:41:31;;;;;;;10.55;3.88;;;11.90;94.50;;;;;;5027248;28;20041;-59
2021/11/10 03:43:58;;;;;;;11.05;4.15;;;11.90;94.60;;;;;;5027319;28;20587;-58
2021/11/10 03:46:25;;;;;;;12.90;4.43;;;11.90;94.70;;;;;;5028223;28;20045;-58
2021/11/10 03:48:52;;;;;;;6.07;4.00;;;11.90;94.70;;;;;;5034698;28;20162;-59
2021/11/10 03:51:19;;;;;;;8.82;4.13;;;11.90;94.70;;;;;;5033150;28;20085;-59
2021/11/10 03:53:48;;;;;;;6.78;4.10;;;11.80;94.70;;;;;;5027338;28;20390;-58
2021/11/10 03:56:15;;;;;;;7.40;4.18;;;11.80;94.80;;;;;;5033878;28;20081;-61
2021/11/10 03:58:42;;;;;;;7.22;5.03;;;11.80;94.90;;;;;;5030957;28;20046;-58
2021/11/10 04:01:09;;;;;;;7.40;4.57;;;11.90;94.90;;;;;;5030681;28;20080;-59
2021/11/10 04:03:36;;;;;;;8.48;5.32;;;11.80;94.90;;;;;;5026549;28;20049;-58
2021/11/10 04:06:03;;;;;;;10.07;4.43;;;11.90;95.00;;;;;;5039307;28;20049;-59
2021/11/10 04:08:29;;;;;;;7.68;3.60;;;11.90;95.00;;;;;;5031267;28;20092;-58
2021/11/10 04:10:56;;;;;;;13.60;4.07;;;11.90;95.00;;;;;;5037370;28;20139;-60
2021/11/10 04:13:23;;;;;;;5.97;3.47;;;11.90;95.10;;;;;;5030434;28;20107;-58
2021/11/10 04:15:50;;;;;;;5.93;3.72;;;11.90;95.10;;;;;;5030165;28;20564;-59
2021/11/10 04:18:17;;;;;;;4.78;3.30;;;11.90;95.10;;;;;;5030588;28;20053;-59
2021/11/10 04:20:43;;;;;;;6.38;4.53;;;11.90;95.00;;;;;;5030818;28;20045;-60
2021/11/10 04:23:10;;;;;;;7.22;4.03;;;11.90;95.00;;;;;;5030076;28;20085;-59
2021/11/10 04:25:37;;;;;;;6.53;3.25;;;11.90;95.10;;;;;;5030584;28;20124;-59
2021/11/10 04:28:04;;;;;;;4.53;2.92;;;11.90;95.10;;;;;;5030140;28;20068;-60
2021/11/10 04:30:32;;;;;;;6.03;2.95;;;11.80;95.10;;;;;;5037079;28;20069;-59
2021/11/10 04:32:59;;;;;;;7.78;4.18;;;11.80;95.00;;;;;;5029456;28;20049;-58
2021/11/10 04:35:25;;;;;;;5.72;3.10;;;11.80;95.00;;;;;;5029906;28;20041;-59
2021/11/10 04:37:52;;;;;;;4.97;3.33;;;11.80;94.90;;;;;;5030231;28;20076;-59
2021/11/10 04:40:19;;;;;;;5.50;3.40;;;11.80;94.90;;;;;;5038004;28;20467;-59
2021/11/10 04:42:46;;;;;;;7.75;3.50;;;11.90;95.00;;;;;;5030072;28;20507;-58
2021/11/10 04:45:19;;;;;;;5.35;3.20;;;11.80;95.00;;;;;;5030636;28;20053;-59
2021/11/10 04:47:46;;;;;;;5.25;3.25;;;11.80;94.90;;;;;;5029883;28;20080;-58
2021/11/10 04:50:15;;;;;;;6.63;3.70;;;11.80;94.90;;;;;;5031804;28;20092;-58
2021/11/10 04:52:42;;;;;;;7.10;4.00;;;11.80;94.90;;;;;;5032759;28;20099;-58
2021/11/10 04:55:09;;;;;;;4.85;3.45;;;11.70;95.00;;;;;;5036222;28;20037;-58
2021/11/10 04:57:36;;;;;;;8.43;4.32;;;11.80;95.10;;;;;;5030150;28;20199;-59
2021/11/10 05:00:04;;;;;;;7.22;3.83;;;11.70;95.00;;;;;;5030253;28;20037;-58
2021/11/10 05:02:31;;;;;;;6.93;3.95;;;11.60;95.00;;;;;;5030603;28;20037;-58
2021/11/10 05:04:58;;;;;;;5.60;3.42;;;11.60;94.90;;;;;;5037197;28;20041;-59
2021/11/10 05:07:25;;;;;;;6.43;3.58;;;11.60;94.90;;;;;;5029084;28;20447;-59
2021/11/10 05:09:54;;;;;;;8.45;3.60;;;11.50;94.80;;;;;;5027777;28;20068;-59
2021/11/10 05:12:21;;;;;;;9.48;4.45;;;11.50;94.80;;;;;;5030449;28;20089;-59
2021/11/10 05:14:47;;;;;;;5.05;3.53;;;11.40;94.80;;;;;;5029673;28;20087;-59
2021/11/10 05:17:14;;;;;;;7.35;3.95;;;11.40;94.80;;;;;;5029409;28;20050;-59
2021/11/10 05:19:41;;;;;;;11.35;4.65;;;11.40;94.90;;;;;;5027973;28;20122;-59
2021/11/10 05:22:28;;;;;;;7.65;4.57;;;11.30;94.90;;;;;;5031044;28;20049;-59
2021/11/10 05:24:55;;;;;;;6.32;4.40;;;11.30;95.10;;;;;;5031727;28;20080;-59
2021/11/10 05:27:26;;;;;;;7.68;4.75;;;11.30;95.20;;;;;;5033588;28;20045;-58
2021/11/10 05:29:53;;;;;;;6.20;4.03;;;11.40;95.30;;;;;;5029083;28;20456;-59
2021/11/10 05:32:19;;;;;;;7.15;4.38;;;11.40;95.30;;;;;;5031181;28;20061;-59
2021/11/10 05:34:48;;;;;;;7.28;4.70;;;11.50;95.30;;;;;;5027622;28;20069;-59
2021/11/10 05:37:15;;;;;;;7.78;4.68;;;11.40;95.30;;;;;;5031010;28;20144;-58
2021/11/10 05:39:41;;;;;;;6.63;3.95;;;11.40;95.30;;;;;;5033626;28;20049;-58
2021/11/10 05:42:08;;;;;;;9.50;4.57;;;11.50;95.40;;;;;;5036782;28;20136;-59
2021/11/10 05:44:40;;;;;;;8.68;4.10;;;11.50;95.40;;;;;;5036447;28;20042;-58
2021/11/10 05:47:09;;;;;;;6.55;4.63;;;11.50;95.50;;;;;;5029680;28;20077;-58
2021/11/10 05:49:37;;;;;;;7.07;4.53;;;11.50;95.50;;;;;;5039547;28;20128;-59
2021/11/10 05:52:05;;;;;;;7.57;4.93;;;11.60;95.50;;;;;;5029026;28;20135;-58
2021/11/10 05:54:32;;;;;;;7.00;4.18;;;11.60;95.50;;;;;;5028620;28;20132;-59
2021/11/10 05:56:59;;;;;;;7.63;4.65;;;11.70;95.50;;;;;;5029900;28;20558;-58
2021/11/10 05:59:26;;;;;;;11.63;4.75;;;11.70;95.50;;;;;;5028772;28;20096;-59
2021/11/10 06:01:53;;;;;;;7.13;3.70;;;11.70;95.50;;;;;;5031853;28;20147;-59
2021/11/10 06:04:19;;;;;;;10.75;5.10;;;11.80;95.50;;;;;;5034473;28;20136;-58
2021/11/10 06:06:47;;;;;;;11.02;4.18;;;11.80;95.50;;;;;;5030497;28;20096;-58
2021/11/10 06:09:14;;;;;;;8.30;5.35;;;11.80;95.50;;;;;;5037213;28;20860;-59
2021/11/10 06:11:44;;;;;;;7.63;4.47;;;11.90;95.40;;;;;;5032989;28;20052;-59
2021/11/10 06:14:11;;;;;;;8.15;4.50;;;11.90;95.40;;;;;;5028533;28;20524;-58
2021/11/10 06:16:38;;;;;;;6.03;4.13;;;11.90;95.40;;;;;;5026770;28;20566;-58
2021/11/10 06:19:05;;;;;;;8.70;4.65;;;11.90;95.40;;;;;;5041228;28;20118;-59
2021/11/10 06:21:32;;;;;;;9.75;5.60;;;12.00;95.40;;;;;;5038631;28;20084;-58
2021/11/10 06:23:58;;;;;;;11.80;6.32;;;12.00;95.40;;;;;;5042462;28;20460;-58
2021/11/10 06:26:25;;;;;;;10.40;6.18;;;12.00;95.40;;;;;;5035878;28;20494;-59
2021/11/10 06:28:52;;;;;;;10.15;6.45;;;12.00;95.40;;;;;;5028512;28;20501;-58
2021/11/10 06:31:19;;;;;;;14.27;6.35;;;12.00;95.40;;;;;;5035426;28;20570;-59
2021/11/10 06:33:46;;;;;;;18.02;7.10;;;12.00;95.40;;;;;;5028473;28;20053;-59
2021/11/10 06:36:12;;;;;;;9.52;6.22;;;12.00;95.50;;;;;;5029814;28;20064;-58
2021/11/10 06:38:39;;;;;;;10.90;6.78;;;12.00;95.50;;;;;;5027528;28;20053;-58
2021/11/10 06:41:06;;;;;;;7.85;5.38;;;12.00;95.50;;;;;;5032384;28;20041;-59
2021/11/10 06:43:35;;;;;;;8.32;5.28;;;12.00;95.50;;;;;;5029530;28;20077;-59
2021/11/10 06:46:02;;;;;;;11.52;6.13;;;11.90;95.50;;;;;;5028329;28;20042;-59
2021/11/10 06:48:29;;;;;;;8.55;5.72;;;12.00;95.60;;;;;;5026771;28;20049;-59
2021/11/10 06:50:56;;;;;;;7.97;5.07;;;12.00;95.60;;;;;;5043557;28;20072;-59
2021/11/10 06:53:22;;;;;;;6.43;5.03;;;12.00;95.80;;;;;;5033190;28;20088;-59
2021/11/10 06:55:49;;;;;;;9.90;5.88;;;12.00;95.50;;;;;;5038856;28;20576;-61
2021/11/10 06:58:17;;;;;;;12.05;5.95;;;12.30;95.60;;;;;;5033833;28;20070;-59
2021/11/10 07:00:43;;;;;;;11.68;4.97;;;12.10;95.50;;;;;;5036086;28;20044;-59
2021/11/10 07:03:13;;;;;;;6.63;5.40;;;12.20;95.40;;;;;;5027756;28;20132;-59
2021/11/10 07:05:40;;;;;;;9.02;5.68;;;12.20;95.50;;;;;;5027609;28;20382;-59
2021/11/10 07:08:07;;;;;;;8.60;5.18;;;12.30;95.40;;;;;;5026139;28;20132;-59
2021/11/10 07:10:34;;;;;;;9.38;5.65;;;12.30;95.40;;;;;;5022854;28;20586;-59
2021/11/10 07:13:01;;;;;;;6.68;4.82;;;12.30;95.40;;;;;;5027969;28;20111;-59
2021/11/10 07:15:28;;;;;;;9.32;5.35;;;12.30;95.40;;;;;;5031847;28;20472;-59
2021/11/10 07:17:55;;;;;;;5.55;4.72;;;12.30;95.30;;;;;;5024314;28;20104;-59
2021/11/10 07:20:21;;;;;;;6.82;5.45;;;12.30;95.40;;;;;;5022288;28;20444;-59
2021/11/10 07:22:48;;;;;;;12.00;6.63;;;12.30;95.40;;;;;;5024462;28;20700;-56
2021/11/10 07:25:15;;;;;;;8.48;4.90;;;12.30;95.30;;;;;;5026229;28;20100;-55
2021/11/10 07:27:42;;;;;;;8.45;6.30;;;12.30;95.30;;;;;;5026142;28;20092;-56
2021/11/10 07:30:10;;;;;;;10.18;6.00;;;12.30;95.30;;;;;;5032668;28;20145;-56
2021/11/10 07:32:46;;;;;;;11.56;6.50;;;12.30;95.40;;;;;;4901988;28;10001172;-56
2021/11/10 07:35:13;;;;;;;9.30;6.13;;;12.30;95.40;;;;;;5028078;28;20315;-57
2021/11/10 07:37:41;;;;;;;10.52;6.40;;;12.30;95.40;;;;;;5035433;28;20084;-57
2021/11/10 07:40:09;;;;;;;5.20;4.22;;;12.40;95.30;;;;;;5037290;28;20152;-57
2021/11/10 07:42:36;;;;;;;15.20;6.20;;;12.40;95.30;;;;;;5036263;28;20252;-55
2021/11/10 07:45:09;;;;;;;8.98;5.75;;;12.40;95.30;;;;;;5033788;28;20104;-55
2021/11/10 07:47:41;;;;;;;7.30;5.93;;;12.40;95.30;;;;;;5030660;28;20088;-57
2021/11/10 07:50:09;;;;;;;6.95;5.15;;;12.40;95.30;;;;;;5038313;28;20060;-55
2021/11/10 07:52:36;;;;;;;7.35;5.47;;;12.40;95.40;;;;;;5039364;28;20076;-56
2021/11/10 07:55:04;;;;;;;9.90;6.35;;;12.50;95.40;;;;;;5026539;28;20144;-56
2021/11/10 07:57:30;;;;;;;11.40;6.22;;;12.50;95.30;;;;;;5030614;28;20065;-55
2021/11/10 07:59:58;;;;;;;9.90;6.60;;;12.50;95.30;;;;;;5028075;28;20049;-56
2021/11/10 08:02:24;;;;;;;7.35;5.47;;;12.50;95.30;;;;;;5025970;28;20054;-57
2021/11/10 08:04:51;;;;;;;10.23;7.00;;;12.40;95.40;;;;;;5029312;28;20084;-57
2021/11/10 08:07:18;;;;;;;10.82;6.78;;;12.40;95.40;;;;;;5022112;28;20107;-55
2021/11/10 08:09:45;;;;;;;7.78;5.90;;;12.40;95.40;;;;;;5034831;28;20141;-56
2021/11/10 08:12:11;;;;;;;7.32;5.68;;;12.40;95.40;;;;;;5031771;28;20137;-57
2021/11/10 08:14:38;;;;;;;14.18;7.40;;;12.40;95.50;;;;;;5030571;28;20076;-58
2021/11/10 08:17:05;;;;;;;10.77;7.70;;;12.40;95.60;;;;;;5024401;28;20565;-57
2021/11/10 08:19:32;;;;;;;7.22;5.95;;;12.30;95.60;;;;;;5036382;28;20084;-58
2021/11/10 08:21:59;;;;;;;11.48;6.97;;;12.30;95.70;;;;;;5028330;28;20118;-58
2021/11/10 08:24:27;;;;;;;9.52;6.65;;;12.40;95.80;;;;;;5039745;28;20088;-58
2021/11/10 08:26:54;;;;;;;10.13;6.72;;;12.30;95.80;;;;;;5023721;28;20558;-58
2021/11/10 08:29:22;;;;;;;10.80;7.03;;;12.30;96.00;;;;;;5024723;28;20513;-59
2021/11/10 08:31:49;;;;;;;10.05;6.20;;;12.30;96.00;;;;;;5030458;28;20081;-57
2021/11/10 08:34:16;;;;;;;9.15;6.78;;;12.30;96.10;;;;;;5035041;28;20083;-59
2021/11/10 08:36:43;;;;;;;10.35;7.22;;;12.40;96.20;;;;;;5012295;28;20077;-59
2021/11/10 08:39:10;;;;;;;11.45;7.22;;;12.30;96.20;;;;;;5028421;28;20556;-58
2021/11/10 08:41:37;;;;;;;10.98;6.82;;;12.30;96.20;;;;;;5037970;28;20128;-57
2021/11/10 08:44:04;;;;;;;11.73;7.43;;;12.40;96.40;;;;;;5035835;28;20127;-57
2021/11/10 08:46:31;;;;;;;12.15;7.70;;;12.40;96.50;;;;;;5035304;28;20095;-57
2021/11/10 08:48:58;;;;;;;13.90;7.72;;;12.40;96.40;;;;;;5029766;28;20103;-57
2021/11/10 08:51:24;;;;;;;12.73;7.05;;;12.40;96.40;;;;;;5026246;28;20041;-56
2021/11/10 08:53:52;;;;;;;8.88;6.68;;;12.40;96.50;;;;;;5043568;28;20130;-56
2021/11/10 08:56:18;;;;;;;9.10;6.55;;;12.40;96.40;;;;;;5037658;28;20116;-56
2021/11/10 08:58:45;;;;;;;9.40;7.15;;;12.50;96.50;;;;;;5029348;28;20077;-56
2021/11/10 09:01:14;;;;;;;9.40;7.47;;;12.50;96.60;;;;;;5037489;28;20092;-59
2021/11/10 09:03:41;;;;;;;9.90;5.63;;;12.50;96.60;;;;;;5037585;28;20056;-56
2021/11/10 09:06:09;;;;;;;7.50;5.60;;;12.60;96.60;;;;;;5028011;28;20041;-55
2021/11/10 09:08:36;;;;;;;9.80;6.15;;;12.60;96.60;;;;;;5028783;28;20085;-56
2021/11/10 09:11:03;;;;;;;6.85;4.38;;;12.60;96.70;;;;;;5035096;28;20469;-55
2021/11/10 09:13:29;;;;;;;10.05;5.18;;;12.60;96.70;;;;;;5030929;28;20073;-55
2021/11/10 09:15:57;;;;;;;5.25;4.40;;;12.60;96.70;;;;;;5027323;28;20144;-55
2021/11/10 09:18:24;;;;;;;5.20;4.00;;;12.60;96.70;;;;;;5025972;28;20053;-54
2021/11/10 09:20:51;;;;;;;5.65;3.83;;;12.60;96.80;;;;;;5032549;28;20484;-53
2021/11/10 09:23:18;;;;;;;7.25;3.65;;;12.60;96.70;;;;;;5031868;28;20080;-52
2021/11/10 09:25:45;;;;;;;4.40;3.42;;;12.60;96.70;;;;;;5038153;28;20076;-55
2021/11/10 09:28:14;;;;;;;4.13;3.17;;;12.60;96.80;;;;;;5029884;28;20053;-52
2021/11/10 09:30:41;;;;;;;4.82;3.28;;;12.60;96.80;;;;;;5040051;28;20094;-55
2021/11/10 09:33:09;;;;;;;4.55;3.53;;;12.70;96.90;;;;;;5029297;28;20103;-55
2021/11/10 09:35:36;;;;;;;4.07;2.90;;;12.70;97.00;;;;;;5026481;28;20136;-55
2021/11/10 09:38:04;;;;;;;5.60;2.72;;;12.70;96.90;;;;;;5034295;28;20072;-56
2021/11/10 09:40:33;;;;;;;5.93;2.95;;;12.80;96.90;;;;;;5037347;28;20084;-54
2021/11/10 09:43:00;;;;;;;3.97;2.58;;;12.90;97.10;;;;;;5031606;28;20736;-56
2021/11/10 09:45:27;;;;;;;3.78;3.17;;;13.00;97.10;;;;;;5026185;28;20089;-55
2021/11/10 09:47:54;;;;;;;5.78;4.68;;;13.10;97.20;;;;;;5033687;28;20088;-55
2021/11/10 09:50:23;;;;;;;3.60;2.60;;;13.10;97.10;;;;;;5040330;28;20102;-55
2021/11/10 09:52:50;;;;;;;3.83;2.40;;;13.20;97.10;;;;;;5039585;28;20459;-55
2021/11/10 09:55:19;;;;;;;3.63;2.20;;;13.30;96.90;;;;;;5028655;28;20080;-55
2021/11/10 09:57:46;;;;;;;7.00;3.08;;;13.40;96.80;;;;;;5028799;28;20465;-55
2021/11/10 10:00:16;;;;;;;5.05;3.42;;;13.30;96.70;;;;;;5037096;28;20143;-55
2021/11/10 10:02:45;;;;;;;8.52;5.20;;;13.30;96.70;;;;;;5039880;28;20092;-56
2021/11/10 10:05:13;;;;;;;6.93;4.50;;;13.40;96.80;;;;;;5030973;28;20048;-54
2021/11/10 10:07:40;;;;;;;9.63;4.50;;;13.40;96.70;;;;;;5036136;28;20080;-55
2021/11/10 10:10:07;;;;;;;5.63;2.60;;;13.50;96.70;;;;;;5036656;28;20045;-54
2021/11/10 10:12:34;;;;;;;2.92;2.00;;;13.50;96.60;;;;;;5031377;28;20133;-56
2021/11/10 10:15:02;;;;;;;5.68;2.38;;;13.50;96.80;;;;;;5033351;28;20111;-55
2021/11/10 10:17:34;;;;;;;3.78;2.13;;;13.50;96.60;;;;;;5035815;28;20088;-56
2021/11/10 10:20:01;;;;;;;3.92;2.40;;;13.60;96.60;;;;;;5030389;28;20099;-56
2021/11/10 10:22:28;;;;;;;1.90;1.13;;;13.80;96.40;;;;;;5028975;28;20045;-55
2021/11/10 10:24:56;;;;;;;1.75;1.25;;;13.60;96.20;;;;;;5034691;28;20112;-56
2021/11/10 10:27:30;;;;;;;2.67;1.20;;;13.60;96.10;;;;;;5035625;28;20461;-55
2021/11/10 10:30:26;;;;;;;2.95;1.45;;;13.70;96.10;;;;;;5035832;28;20107;-55
2021/11/10 10:33:05;;;;;;;1.75;1.10;;;13.70;96.10;;;;;;5027029;28;20155;-55
2021/11/10 10:35:42;;;;;;;1.98;1.45;;;13.70;96.30;;;;;;5030414;28;20491;-56
2021/11/10 10:38:11;;;;;;;3.50;1.95;;;13.70;96.40;;;;;;5039589;28;20096;-54
2021/11/10 10:40:39;;;;;;;2.80;1.42;;;13.70;96.10;;;;;;5032539;28;20479;-55
2021/11/10 10:43:06;;;;;;;3.00;1.65;;;13.70;96.10;;;;;;5039846;28;20103;-57
2021/11/10 10:45:44;;;;;;;1.95;1.58;;;13.70;96.10;;;;;;5032191;28;20318;-56
2021/11/10 10:48:15;;;;;;;1.83;1.20;;;13.70;96.30;;;;;;5032129;28;20124;-56
2021/11/10 10:50:56;;;;;;;3.40;1.55;;;13.70;96.20;;;;;;5031434;28;20045;-55
2021/11/10 10:53:44;;;;;;;4.03;1.40;;;13.60;96.10;;;;;;5030857;28;20107;-54
2021/11/10 10:56:27;;;;;;;2.78;1.65;;;13.60;96.40;;;;;;5027594;28;20080;-55
2021/11/10 10:58:58;;;;;;;4.82;2.03;;;13.60;96.20;;;;;;5030207;28;20089;-55
2021/11/10 11:01:36;;;;;;;3.90;1.95;;;13.60;96.30;;;;;;5032655;28;20103;-52
2021/11/10 11:04:10;;;;;;;3.70;1.40;;;13.60;96.30;;;;;;5038422;28;20052;-53
2021/11/10 11:06:39;;;;;;;4.72;2.03;;;13.60;96.30;;;;;;5036943;28;20137;-56
2021/11/10 11:09:13;;;;;;;3.40;1.42;;;13.60;96.40;;;;;;5046261;28;20437;-53
2021/11/10 11:11:50;;;;;;;3.40;1.30;;;13.70;96.20;;;;;;5040485;28;20080;-55
2021/11/10 11:17:29;;;;;;;1.67;1.08;;;13.70;96.00;;;;;;5022099;28;20049;-53
2021/11/10 11:20:07;;;;;;;2.03;1.20;;;13.70;96.20;;;;;;5043470;28;20115;-55
2021/11/10 11:22:36;;;;;;;2.80;1.02;;;13.80;96.20;;;;;;5039208;28;20132;-53
2021/11/10 11:25:10;;;;;;;1.83;1.00;;;13.80;96.10;;;;;;5042123;28;20467;-53
2021/11/10 11:27:37;;;;;;;1.60;0.90;;;13.80;96.00;;;;;;5040120;28;20380;-52
2021/11/10 11:30:05;;;;;;;2.17;1.00;;;13.80;96.10;;;;;;5035449;28;20080;-53
2021/11/10 11:32:34;;;;;;;2.05;1.33;;;13.80;96.20;;;;;;5033689;28;20508;-53
2021/11/10 11:35:08;;;;;;;4.10;1.25;;;13.80;96.10;;;;;;5043143;28;20045;-54
2021/11/10 11:37:35;;;;;;;4.40;1.10;;;13.90;96.20;;;;;;5041001;28;20044;-54
2021/11/10 11:40:05;;;;;;;1.90;1.45;;;13.90;96.20;;;;;;5035369;28;20500;-54
2021/11/10 11:42:32;;;;;;;2.33;0.90;;;13.90;96.20;;;;;;5041501;28;20045;-54
2021/11/10 11:44:58;;;;;;;2.10;1.02;;;13.80;96.20;;;;;;5045180;28;20124;-56
2021/11/10 11:47:26;;;;;;;5.28;1.20;;;13.90;96.30;;;;;;5030082;28;20041;-54
2021/11/10 11:49:54;;;;;;;3.58;0.70;;;13.80;96.30;;;;;;5033795;28;20085;-55
2021/11/10 11:52:27;;;;;;;2.83;0.75;;;13.70;96.50;;;;;;5044171;28;20077;-55
2021/11/10 11:54:59;;;;;;;4.63;0.90;;;13.70;96.60;;;;;;5040589;28;20049;-55
2021/11/10 11:57:27;;;;;;;4.63;0.90;;;13.60;96.80;;;;;;5040291;28;20130;-54
2021/11/10 11:59:54;;;;;;;2.55;0.68;;;13.60;96.60;;;;;;5029386;28;20048;-55
2021/11/10 12:02:28;;;;;;;1.75;0.85;;;13.60;96.60;;;;;;5042306;28;20096;-55
2021/11/10 12:04:56;;;;;;;1.85;0.77;;;13.60;96.80;;;;;;5033905;28;20424;-56
2021/11/10 12:07:43;;;;;;;1.95;0.75;;;13.50;96.60;;;;;;5041563;28;20089;-54
2021/11/10 12:10:21;;;;;;;1.88;0.63;;;13.50;97.00;;;;;;5032405;28;20129;-56
2021/11/10 12:13:08;;;;;;;2.10;0.70;;;13.50;96.90;;;;;;5034553;28;20096;-52
2021/11/10 12:15:57;;;;;;;1.90;0.80;;;13.60;96.80;;;;;;5035638;28;20049;-55
2021/11/10 12:18:24;;;;;;;3.20;0.95;;;13.70;96.60;;;;;;5033049;28;20334;-55
2021/11/10 12:21:01;;;;;;;3.47;0.70;;;13.60;96.40;;;;;;5022645;28;20084;-55
2021/11/10 12:23:50;;;;;;;1.65;0.85;;;13.70;96.30;;;;;;5029272;28;20041;-55
2021/11/10 12:26:18;;;;;;;1.55;0.88;;;13.60;96.40;;;;;;5025292;28;20084;-54
2021/11/10 12:28:51;;;;;;;4.20;1.20;;;13.60;96.30;;;;;;5030037;28;20076;-52
2021/11/10 12:31:33;;;;;;;2.20;1.27;;;13.70;96.30;;;;;;5030277;28;20594;-53
2021/11/10 12:34:01;;;;;;;2.00;1.05;;;13.80;96.70;;;;;;5029597;28;20049;-54
2021/11/10 12:36:49;;;;;;;2.75;1.00;;;13.80;96.40;;;;;;5037609;28;20053;-52
2021/11/10 12:39:29;;;;;;;1.98;0.90;;;13.80;96.10;;;;;;5029484;28;20565;-52
2021/11/10 12:41:59;;;;;;;3.58;1.15;;;13.80;96.30;;;;;;5029780;28;20049;-55
2021/11/10 12:44:29;;;;;;;2.70;1.25;;;13.70;96.40;;;;;;5035973;28;20072;-53
2021/11/10 12:46:56;;;;;;;2.95;1.23;;;13.70;96.30;;;;;;5037174;28;20126;-53
2021/11/10 12:49:23;;;;;;;2.50;1.48;;;13.70;96.20;;;;;;5029859;28;20069;-55
2021/11/10 12:52:10;;;;;;;2.67;1.33;;;13.70;96.50;;;;;;5029422;28;20554;-54
2021/11/10 12:54:45;;;;;;;4.68;1.35;;;13.70;96.90;;;;;;5029027;28;20409;-55
2021/11/10 12:57:31;;;;;;;7.35;1.30;;;13.70;96.70;;;;;;5033778;28;20568;-53